createdAt,value
2023-04-08T00:01:19.341Z,7.33
2023-04-08T00:03:46.520Z,7.36
2023-04-08T00:06:13.714Z,7.33
2023-04-08T00:08:40.741Z,7.29
2023-04-08T00:11:07.848Z,7.22
2023-04-08T00:13:34.874Z,7.17
2023-04-08T00:16:03.187Z,7.22
2023-04-08T00:18:30.265Z,7.30
2023-04-08T00:20:57.384Z,7.31
2023-04-08T00:23:24.444Z,7.28
2023-04-08T00:25:51.607Z,7.27
2023-04-08T00:28:18.687Z,7.28
2023-04-08T00:30:45.844Z,7.24
2023-04-08T00:33:13.351Z,7.34
2023-04-08T00:35:40.571Z,7.35
2023-04-08T00:38:08.544Z,7.40
2023-04-08T00:40:35.851Z,7.23
2023-04-08T00:43:02.905Z,7.32
2023-04-08T00:45:30.518Z,7.34
2023-04-08T00:47:57.592Z,7.40
2023-04-08T00:50:24.907Z,7.46
2023-04-08T00:52:52.058Z,7.53
2023-04-08T00:55:19.051Z,7.55
2023-04-08T00:57:47.194Z,7.52
2023-04-08T01:00:15.652Z,7.49
2023-04-08T01:02:52.802Z,7.53
2023-04-08T01:05:34.066Z,7.61
2023-04-08T01:08:05.224Z,7.60
2023-04-08T01:10:35.017Z,7.64
2023-04-08T01:13:06.032Z,7.67
2023-04-08T01:15:35.758Z,7.60
2023-04-08T01:18:07.248Z,7.43
2023-04-08T01:20:35.196Z,7.45
2023-04-08T01:23:25.104Z,7.43
2023-04-08T01:25:54.204Z,7.34
2023-04-08T01:28:24.205Z,7.29
2023-04-08T01:30:52.155Z,7.39
2023-04-08T01:33:20.531Z,7.29
2023-04-08T01:35:48.141Z,7.27
2023-04-08T01:38:18.225Z,7.32
2023-04-08T01:40:47.412Z,7.24
2023-04-08T01:43:17.326Z,7.32
2023-04-08T01:45:46.880Z,7.20
2023-04-08T01:48:15.873Z,7.19
2023-04-08T01:50:44.630Z,7.18
2023-04-08T01:53:12.771Z,7.24
2023-04-08T01:55:42.479Z,7.25
2023-04-08T01:58:13.496Z,7.14
2023-04-08T02:00:43.581Z,7.24
2023-04-08T02:03:12.739Z,7.25
2023-04-08T02:05:40.614Z,7.18
2023-04-08T02:08:07.627Z,7.18
2023-04-08T02:10:34.711Z,7.12
2023-04-08T02:13:03.433Z,6.97
2023-04-08T02:15:36.092Z,7.09
2023-04-08T02:18:12.339Z,7.15
2023-04-08T02:20:47.180Z,7.07
2023-04-08T02:23:19.508Z,6.96
2023-04-08T02:25:48.561Z,7.10
2023-04-08T02:28:18.017Z,7.11
2023-04-08T02:30:53.278Z,7.17
2023-04-08T02:33:22.196Z,7.18
2023-04-08T02:35:52.079Z,7.18
2023-04-08T02:38:19.826Z,7.12
2023-04-08T02:40:49.876Z,7.13
2023-04-08T02:43:17.041Z,7.18
2023-04-08T02:45:45.531Z,7.06
2023-04-08T02:48:12.590Z,7.13
2023-04-08T02:50:40.873Z,7.26
2023-04-08T02:53:08.847Z,7.17
2023-04-08T02:55:36.053Z,7.29
2023-04-08T02:58:03.138Z,7.28
2023-04-08T03:00:31.663Z,7.05
2023-04-08T03:02:59.106Z,6.96
2023-04-08T03:05:26.835Z,7.06
2023-04-08T03:07:53.958Z,7.12
2023-04-08T03:10:21.012Z,6.91
2023-04-08T03:12:48.042Z,7.10
2023-04-08T03:15:19.735Z,7.03
2023-04-08T03:17:46.825Z,7.01
2023-04-08T03:20:14.543Z,7.01
2023-04-08T03:22:41.576Z,7.05
2023-04-08T03:25:09.329Z,7.03
2023-04-08T03:27:36.457Z,6.99
2023-04-08T03:30:03.795Z,6.97
2023-04-08T03:32:30.963Z,6.88
2023-04-08T03:34:58.024Z,6.92
2023-04-08T03:37:25.411Z,6.86
2023-04-08T03:39:53.268Z,6.74
2023-04-08T03:42:20.432Z,6.71
2023-04-08T03:44:47.549Z,6.66
2023-04-08T03:47:14.688Z,6.63
2023-04-08T03:49:42.066Z,6.52
2023-04-08T03:52:09.292Z,6.53
2023-04-08T03:54:36.388Z,6.42
2023-04-08T03:57:03.516Z,6.43
2023-04-08T03:59:30.653Z,6.12
2023-04-08T04:01:57.845Z,6.19
2023-04-08T04:04:25.467Z,6.07
2023-04-08T04:06:52.659Z,5.95
2023-04-08T04:09:19.752Z,5.86
2023-04-08T04:11:46.890Z,5.76
2023-04-08T04:14:14.054Z,5.66
2023-04-08T04:16:41.226Z,5.61
2023-04-08T04:19:08.607Z,5.53
2023-04-08T04:21:35.705Z,5.34
2023-04-08T04:24:02.716Z,5.21
2023-04-08T04:26:29.807Z,5.15
2023-04-08T04:28:56.900Z,5.03
2023-04-08T04:31:27.956Z,5.04
2023-04-08T04:33:55.265Z,4.87
2023-04-08T04:36:22.747Z,4.85
2023-04-08T04:38:50.951Z,4.83
2023-04-08T04:41:18.219Z,4.80
2023-04-08T04:43:45.703Z,4.60
2023-04-08T04:46:13.250Z,4.64
2023-04-08T04:48:40.631Z,4.73
2023-04-08T04:51:07.767Z,4.77
2023-04-08T04:53:34.962Z,4.72
2023-04-08T04:56:02.339Z,4.67
2023-04-08T04:58:29.883Z,4.68
2023-04-08T05:00:57.178Z,4.72
2023-04-08T05:03:24.462Z,4.69
2023-04-08T05:05:55.060Z,4.62
2023-04-08T05:08:22.741Z,4.61
2023-04-08T05:10:55.705Z,4.63
2023-04-08T05:13:22.835Z,4.63
2023-04-08T05:15:49.980Z,4.57
2023-04-08T05:18:17.176Z,4.60
2023-04-08T05:20:44.337Z,4.55
2023-04-08T05:23:13.903Z,4.56
2023-04-08T05:25:41.066Z,4.55
2023-04-08T05:28:08.053Z,4.55
2023-04-08T05:30:35.560Z,4.62
2023-04-08T05:33:02.683Z,4.59
2023-04-08T05:35:29.834Z,4.58
2023-04-08T05:37:57.022Z,4.49
2023-04-08T05:40:24.336Z,4.50
2023-04-08T05:42:51.500Z,4.52
2023-04-08T05:45:18.577Z,4.53
2023-04-08T05:47:45.689Z,4.59
2023-04-08T05:50:13.378Z,4.62
2023-04-08T05:52:44.769Z,4.66
2023-04-08T05:55:16.874Z,4.65
2023-04-08T05:57:44.136Z,4.67
2023-04-08T06:00:11.487Z,4.65
2023-04-08T06:02:39.020Z,4.75
2023-04-08T06:05:06.899Z,4.63
2023-04-08T06:07:34.383Z,4.74
2023-04-08T06:10:02.026Z,4.80
2023-04-08T06:12:29.529Z,4.88
2023-04-08T06:14:56.696Z,4.90
2023-04-08T06:17:23.967Z,5.02
2023-04-08T06:19:51.179Z,5.11
2023-04-08T06:22:18.228Z,5.14
2023-04-08T06:24:48.484Z,5.10
2023-04-08T06:27:15.955Z,5.23
2023-04-08T06:29:43.377Z,5.24
2023-04-08T06:32:10.833Z,5.38
2023-04-08T06:34:38.330Z,5.35
2023-04-08T06:37:06.321Z,5.50
2023-04-08T06:39:34.124Z,5.65
2023-04-08T06:42:01.624Z,5.72
2023-04-08T06:44:28.786Z,5.91
2023-04-08T06:46:56.077Z,5.86
2023-04-08T06:49:23.510Z,5.88
2023-04-08T06:51:50.922Z,5.96
2023-04-08T06:54:18.254Z,5.98
2023-04-08T06:56:45.395Z,6.16
2023-04-08T06:59:13.029Z,6.22
2023-04-08T07:01:40.405Z,6.38
2023-04-08T07:04:07.515Z,6.50
2023-04-08T07:06:34.725Z,6.60
2023-04-08T07:09:01.792Z,6.68
2023-04-08T07:11:29.197Z,6.77
2023-04-08T07:13:56.318Z,6.86
2023-04-08T07:16:23.450Z,6.79
2023-04-08T07:18:51.831Z,6.76
2023-04-08T07:21:19.194Z,6.98
2023-04-08T07:23:46.293Z,7.14
2023-04-08T07:26:14.328Z,7.21
2023-04-08T07:28:42.164Z,7.33
2023-04-08T07:31:14.150Z,7.51
2023-04-08T07:33:42.187Z,7.41
2023-04-08T07:36:34.668Z,7.47
2023-04-08T07:39:02.268Z,6.93
2023-04-08T07:41:31.973Z,7.55
2023-04-08T07:43:59.241Z,7.33
2023-04-08T07:46:26.490Z,7.34
2023-04-08T07:48:53.644Z,7.23
2023-04-08T07:51:21.068Z,7.55
2023-04-08T07:53:48.678Z,7.37
2023-04-08T07:56:16.269Z,7.88
2023-04-08T07:58:44.724Z,8.00
2023-04-08T08:01:19.844Z,7.88
2023-04-08T08:03:49.014Z,8.17
2023-04-08T08:06:16.791Z,8.17
2023-04-08T08:08:44.342Z,8.20
2023-04-08T08:11:11.411Z,8.28
2023-04-08T08:13:38.493Z,8.39
2023-04-08T08:16:09.007Z,8.55
2023-04-08T08:18:36.885Z,8.54
2023-04-08T08:21:04.122Z,8.54
2023-04-08T08:23:31.555Z,8.42
2023-04-08T08:26:12.750Z,8.58
2023-04-08T08:28:40.335Z,8.84
2023-04-08T08:31:07.811Z,9.07
2023-04-08T08:33:35.510Z,9.18
2023-04-08T08:36:04.697Z,9.07
2023-04-08T08:38:31.882Z,8.91
2023-04-08T08:40:59.877Z,8.84
2023-04-08T08:43:27.671Z,8.85
2023-04-08T08:45:55.158Z,8.92
2023-04-08T08:48:22.670Z,8.96
2023-04-08T08:50:49.896Z,9.03
2023-04-08T08:53:17.246Z,9.29
2023-04-08T08:56:13.675Z,9.51
2023-04-08T08:58:35.322Z,9.68
2023-04-08T09:01:02.457Z,9.77
2023-04-08T09:03:29.831Z,9.74
2023-04-08T09:05:58.804Z,9.47
2023-04-08T09:08:31.181Z,9.57
2023-04-08T09:11:14.811Z,9.69
2023-04-08T09:13:43.797Z,9.63
2023-04-08T09:16:19.845Z,9.80
2023-04-08T09:18:49.413Z,9.88
2023-04-08T09:21:18.433Z,10.05
2023-04-08T09:23:46.961Z,10.26
2023-04-08T09:26:19.724Z,10.42
2023-04-08T09:29:25.107Z,10.47
2023-04-08T09:32:00.654Z,10.51
2023-04-08T09:34:29.524Z,10.52
2023-04-08T09:36:56.930Z,10.52
2023-04-08T09:39:24.333Z,10.57
2023-04-08T09:41:53.355Z,10.65
2023-04-08T09:44:22.060Z,10.77
2023-04-08T09:46:49.231Z,10.95
2023-04-08T09:49:27.221Z,10.97
2023-04-08T09:52:09.003Z,11.02
2023-04-08T09:54:49.123Z,10.83
2023-04-08T09:57:22.830Z,10.86
2023-04-08T09:59:57.954Z,10.97
2023-04-08T10:02:37.156Z,10.75
2023-04-08T10:05:08.304Z,10.76
2023-04-08T10:07:36.136Z,10.92
2023-04-08T10:10:03.897Z,10.97
2023-04-08T10:12:31.334Z,11.11
2023-04-08T10:15:24.941Z,11.12
2023-04-08T10:17:55.768Z,11.00
2023-04-08T10:20:34.838Z,11.04
2023-04-08T10:23:02.123Z,10.99
2023-04-08T10:25:36.982Z,10.98
2023-04-08T10:28:18.912Z,11.30
2023-04-08T10:30:46.913Z,11.28
2023-04-08T10:33:19.128Z,11.49
2023-04-08T10:35:55.665Z,11.48
2023-04-08T10:38:23.180Z,11.45
2023-04-08T10:40:51.269Z,11.52
2023-04-08T10:43:18.360Z,11.44
2023-04-08T10:45:51.394Z,11.57
2023-04-08T10:48:25.302Z,11.71
2023-04-08T10:50:57.393Z,11.82
2023-04-08T10:53:35.455Z,11.87
2023-04-08T10:56:15.412Z,11.91
2023-04-08T10:58:54.303Z,11.74
2023-04-08T11:01:21.657Z,11.99
2023-04-08T11:03:49.330Z,11.96
2023-04-08T11:06:17.999Z,12.09
2023-04-08T11:08:46.819Z,12.09
2023-04-08T11:11:14.815Z,12.12
2023-04-08T11:13:52.584Z,12.08
2023-04-08T11:16:23.076Z,12.18
2023-04-08T11:18:51.132Z,12.38
2023-04-08T11:21:18.457Z,12.62
2023-04-08T11:23:45.618Z,12.73
2023-04-08T11:26:15.017Z,12.97
2023-04-08T11:28:42.212Z,13.00
2023-04-08T11:31:09.562Z,13.09
2023-04-08T11:33:37.049Z,13.26
2023-04-08T11:36:04.863Z,13.31
2023-04-08T11:38:32.094Z,13.49
2023-04-08T11:41:00.341Z,13.60
2023-04-08T11:43:28.454Z,13.57
2023-04-08T11:45:55.883Z,13.60
2023-04-08T11:48:23.776Z,13.45
2023-04-08T11:51:04.788Z,13.48
2023-04-08T11:53:31.901Z,13.50
2023-04-08T11:56:15.974Z,13.28
2023-04-08T11:58:43.969Z,13.15
2023-04-08T12:01:11.195Z,13.03
2023-04-08T12:03:38.405Z,12.92
2023-04-08T12:06:07.262Z,13.02
2023-04-08T12:08:34.458Z,13.04
2023-04-08T12:11:16.537Z,13.21
2023-04-08T12:13:47.999Z,13.28
2023-04-08T12:16:15.511Z,13.19
2023-04-08T12:18:43.985Z,13.33
2023-04-08T12:21:11.151Z,13.32
2023-04-08T12:23:38.276Z,13.55
2023-04-08T12:26:05.569Z,13.61
2023-04-08T12:28:32.800Z,13.61
2023-04-08T12:31:02.513Z,13.82
2023-04-08T12:33:30.548Z,13.99
2023-04-08T12:35:59.195Z,14.11
2023-04-08T12:38:29.445Z,13.90
2023-04-08T12:40:56.573Z,13.88
2023-04-08T12:43:23.894Z,14.29
2023-04-08T12:45:51.688Z,14.20
2023-04-08T12:48:19.103Z,14.00
2023-04-08T12:50:46.535Z,14.00
2023-04-08T12:53:14.513Z,13.89
2023-04-08T12:55:43.194Z,13.80
2023-04-08T12:58:11.573Z,13.66
2023-04-08T13:00:38.960Z,13.61
2023-04-08T13:03:06.345Z,13.80
2023-04-08T13:08:07.261Z,13.95
2023-04-08T13:10:34.316Z,14.06
2023-04-08T13:13:01.405Z,14.07
2023-04-08T13:15:28.612Z,14.14
2023-04-08T13:17:56.120Z,14.15
2023-04-08T13:20:25.704Z,14.37
2023-04-08T13:22:53.074Z,14.36
2023-04-08T13:25:20.415Z,14.66
2023-04-08T13:27:48.139Z,14.62
2023-04-08T13:30:15.545Z,14.65
2023-04-08T13:32:43.374Z,14.46
2023-04-08T13:35:10.612Z,14.68
2023-04-08T13:37:37.842Z,14.44
2023-04-08T13:40:06.162Z,14.34
2023-04-08T13:42:33.271Z,14.22
2023-04-08T13:45:00.547Z,14.47
2023-04-08T13:47:28.052Z,14.29
2023-04-08T13:49:55.191Z,14.24
2023-04-08T13:52:22.727Z,14.45
2023-04-08T13:54:49.768Z,14.49
2023-04-08T13:57:16.998Z,14.46
2023-04-08T13:59:44.900Z,14.37
2023-04-08T14:02:13.252Z,14.23
2023-04-08T14:04:40.517Z,14.38
2023-04-08T14:07:07.688Z,14.49
2023-04-08T14:09:35.806Z,15.06
2023-04-08T14:12:03.038Z,16.01
2023-04-08T14:14:30.278Z,16.95
2023-04-08T14:16:57.714Z,17.40
2023-04-08T14:19:24.946Z,17.45
2023-04-08T14:21:52.203Z,17.60
2023-04-08T14:24:19.589Z,18.19
2023-04-08T14:26:47.006Z,18.72
2023-04-08T14:29:17.058Z,19.05
2023-04-08T14:31:44.512Z,19.15
2023-04-08T14:34:12.003Z,18.41
2023-04-08T14:36:39.057Z,18.27
2023-04-08T14:39:06.427Z,17.70
2023-04-08T14:41:33.572Z,17.10
2023-04-08T14:44:00.815Z,16.83
2023-04-08T14:46:29.025Z,16.46
2023-04-08T14:48:56.668Z,16.27
2023-04-08T14:51:23.711Z,16.09
2023-04-08T14:53:51.046Z,16.25
2023-04-08T14:56:18.237Z,16.39
2023-04-08T14:58:45.558Z,17.56
2023-04-08T15:01:13.308Z,17.70
2023-04-08T15:03:40.528Z,17.45
2023-04-08T15:06:07.907Z,16.69
2023-04-08T15:08:35.149Z,16.80
2023-04-08T15:11:02.285Z,17.22
2023-04-08T15:13:29.380Z,17.96
2023-04-08T15:15:56.691Z,18.34
2023-04-08T15:18:23.932Z,18.76
2023-04-08T15:20:51.563Z,18.65
2023-04-08T15:23:18.596Z,18.64
2023-04-08T15:25:46.327Z,18.09
2023-04-08T15:28:14.133Z,17.39
2023-04-08T15:30:41.281Z,16.70
2023-04-08T15:33:08.413Z,16.34
2023-04-08T15:35:38.374Z,16.67
2023-04-08T15:38:05.551Z,17.06
2023-04-08T15:40:35.455Z,17.34
2023-04-08T15:43:03.841Z,17.30
2023-04-08T15:45:31.621Z,16.98
2023-04-08T15:47:59.594Z,16.79
2023-04-08T15:50:29.141Z,16.39
2023-04-08T15:52:56.939Z,16.46
2023-04-08T15:55:23.969Z,16.49
2023-04-08T15:57:54.023Z,16.22
2023-04-08T16:00:21.622Z,16.21
2023-04-08T16:02:51.408Z,16.26
2023-04-08T16:05:18.659Z,16.41
2023-04-08T16:07:46.978Z,16.68
2023-04-08T16:10:14.756Z,16.79
2023-04-08T16:12:42.298Z,16.41
2023-04-08T16:15:10.025Z,16.25
2023-04-08T16:17:37.326Z,16.64
2023-04-08T16:20:05.174Z,16.71
2023-04-08T16:22:32.267Z,16.38
2023-04-08T16:24:59.347Z,16.18
2023-04-08T16:27:26.556Z,16.16
2023-04-08T16:29:54.165Z,16.10
2023-04-08T16:32:21.606Z,16.49
2023-04-08T16:34:48.655Z,16.49
2023-04-08T16:37:15.703Z,16.28
2023-04-08T16:39:43.167Z,16.54
2023-04-08T16:42:10.220Z,16.51
2023-04-08T16:44:37.525Z,16.41
2023-04-08T16:47:04.622Z,16.54
2023-04-08T16:49:31.716Z,16.88
2023-04-08T16:51:58.799Z,17.16
2023-04-08T16:54:25.975Z,16.45
2023-04-08T16:56:53.129Z,16.66
2023-04-08T16:59:20.789Z,16.80
2023-04-08T17:01:48.422Z,16.65
2023-04-08T17:04:15.498Z,16.36
2023-04-08T17:06:42.988Z,16.13
2023-04-08T17:09:10.551Z,16.39
2023-04-08T17:11:37.618Z,15.76
2023-04-08T17:14:04.802Z,15.72
2023-04-08T17:16:31.922Z,15.43
2023-04-08T17:18:59.028Z,15.10
2023-04-08T17:21:26.852Z,14.90
2023-04-08T17:23:54.875Z,14.62
2023-04-08T17:26:23.472Z,14.22
2023-04-08T17:28:50.534Z,14.06
2023-04-08T17:31:18.177Z,13.97
2023-04-08T17:33:45.299Z,13.57
2023-04-08T17:36:12.459Z,13.54
2023-04-08T17:38:40.106Z,13.41
2023-04-08T17:41:08.063Z,13.17
2023-04-08T17:43:35.616Z,12.84
2023-04-08T17:46:02.787Z,12.56
2023-04-08T17:48:29.973Z,12.64
2023-04-08T17:51:04.554Z,12.50
2023-04-08T17:53:32.492Z,12.40
2023-04-08T17:56:00.762Z,12.41
2023-04-08T17:58:27.971Z,12.25
2023-04-08T18:00:55.311Z,12.21
2023-04-08T18:03:22.966Z,12.11
2023-04-08T18:05:50.426Z,12.15
2023-04-08T18:08:17.556Z,12.11
2023-04-08T18:10:45.704Z,12.07
2023-04-08T18:13:14.562Z,11.88
2023-04-08T18:15:42.280Z,11.99
2023-04-08T18:18:09.383Z,12.14
2023-04-08T18:20:37.007Z,12.20
2023-04-08T18:23:04.361Z,12.15
2023-04-08T18:25:32.384Z,12.16
2023-04-08T18:27:59.636Z,12.17
2023-04-08T18:30:27.057Z,12.26
2023-04-08T18:32:54.178Z,12.32
2023-04-08T18:35:21.655Z,12.28
2023-04-08T18:37:48.776Z,12.31
2023-04-08T18:40:15.918Z,12.35
2023-04-08T18:42:45.896Z,12.38
2023-04-08T18:45:13.426Z,12.43
2023-04-08T18:47:40.567Z,12.47
2023-04-08T18:50:08.067Z,12.55
2023-04-08T18:52:35.178Z,12.51
2023-04-08T18:55:02.716Z,12.53
2023-04-08T18:57:29.839Z,12.61
2023-04-08T18:59:56.906Z,12.64
2023-04-08T19:02:24.131Z,12.69
2023-04-08T19:04:51.992Z,12.70
2023-04-08T19:07:19.138Z,12.64
2023-04-08T19:09:47.342Z,12.60
2023-04-08T19:12:14.567Z,12.54
2023-04-08T19:14:42.276Z,12.51
2023-04-08T19:17:11.024Z,12.46
2023-04-08T19:19:39.022Z,12.31
2023-04-08T19:22:06.248Z,12.23
2023-04-08T19:24:33.847Z,12.16
2023-04-08T19:27:01.021Z,12.03
2023-04-08T19:29:29.757Z,11.94
2023-04-08T19:31:59.217Z,11.83
2023-04-08T19:34:26.708Z,11.70
2023-04-08T19:36:54.062Z,11.63
2023-04-08T19:39:21.656Z,11.52
2023-04-08T19:41:48.698Z,11.47
2023-04-08T19:44:16.021Z,11.36
2023-04-08T19:46:44.251Z,11.30
2023-04-08T19:49:11.397Z,11.24
2023-04-08T19:51:38.531Z,11.10
2023-04-08T19:54:05.577Z,11.02
2023-04-08T19:56:33.956Z,10.96
2023-04-08T19:59:01.893Z,10.91
2023-04-08T20:01:29.909Z,10.86
2023-04-08T20:03:57.084Z,10.74
2023-04-08T20:06:24.274Z,10.66
2023-04-08T20:08:52.594Z,10.58
2023-04-08T20:11:20.546Z,10.48
2023-04-08T20:13:49.182Z,10.45
2023-04-08T20:16:17.045Z,10.45
2023-04-08T20:18:44.406Z,10.42
2023-04-08T20:21:14.211Z,10.39
2023-04-08T20:23:44.500Z,10.29
2023-04-08T20:26:13.427Z,10.15
2023-04-08T20:28:40.914Z,10.10
2023-04-08T20:31:09.144Z,10.09
2023-04-08T20:33:38.222Z,9.95
2023-04-08T20:36:05.534Z,9.94
2023-04-08T20:38:35.245Z,9.92
2023-04-08T20:41:02.583Z,9.79
2023-04-08T20:43:29.727Z,9.72
2023-04-08T20:45:56.798Z,9.73
2023-04-08T20:48:24.348Z,9.73
2023-04-08T20:50:51.811Z,9.76
2023-04-08T20:53:19.608Z,9.70
2023-04-08T20:55:47.132Z,9.65
2023-04-08T20:58:14.650Z,9.66
2023-04-08T21:00:42.320Z,9.69
2023-04-08T21:03:09.520Z,9.66
2023-04-08T21:05:37.775Z,9.65
2023-04-08T21:08:05.177Z,9.64
2023-04-08T21:10:32.227Z,9.60
2023-04-08T21:13:00.951Z,9.50
2023-04-08T21:15:28.329Z,9.41
2023-04-08T21:17:55.610Z,9.37
2023-04-08T21:20:23.007Z,9.37
2023-04-08T21:22:50.217Z,9.32
2023-04-08T21:25:18.445Z,9.29
2023-04-08T21:27:45.608Z,9.24
2023-04-08T21:30:14.982Z,9.31
2023-04-08T21:32:42.906Z,9.32
2023-04-08T21:35:10.439Z,9.28
2023-04-08T21:37:37.553Z,9.28
2023-04-08T21:40:05.054Z,9.28
2023-04-08T21:42:32.867Z,9.29
2023-04-08T21:44:59.953Z,9.26
2023-04-08T21:47:27.087Z,9.27
2023-04-08T21:49:55.850Z,9.14
2023-04-08T21:52:23.206Z,9.18
2023-04-08T21:54:51.432Z,9.15
2023-04-08T21:57:18.873Z,9.17
2023-04-08T21:59:46.095Z,9.19
2023-04-08T22:02:13.640Z,9.15
2023-04-08T22:04:41.098Z,9.14
2023-04-08T22:07:08.437Z,9.10
2023-04-08T22:09:35.506Z,9.11
2023-04-08T22:12:02.647Z,9.10
2023-04-08T22:14:29.839Z,9.12
2023-04-08T22:16:57.861Z,9.21
2023-04-08T22:19:24.994Z,9.25
2023-04-08T22:21:52.166Z,9.24
2023-04-08T22:24:19.827Z,9.27
2023-04-08T22:26:47.370Z,9.36
2023-04-08T22:29:14.906Z,9.43
2023-04-08T22:31:42.017Z,9.56
2023-04-08T22:34:09.066Z,9.63
2023-04-08T22:36:36.109Z,9.65
2023-04-08T22:39:03.901Z,9.68
2023-04-08T22:41:31.124Z,9.74
2023-04-08T22:43:58.213Z,9.79
2023-04-08T22:46:25.392Z,9.82
2023-04-08T22:48:52.953Z,9.79
2023-04-08T22:51:20.856Z,9.80
2023-04-08T22:53:48.518Z,9.85
2023-04-08T22:56:15.615Z,9.74
2023-04-08T22:58:44.215Z,9.82
2023-04-08T23:01:13.999Z,9.87
2023-04-08T23:03:41.703Z,9.94
2023-04-08T23:06:09.468Z,9.91
2023-04-08T23:08:36.514Z,9.94
2023-04-08T23:11:03.586Z,9.99
2023-04-08T23:13:30.936Z,9.95
2023-04-08T23:15:58.765Z,10.01
2023-04-08T23:18:25.965Z,10.05
2023-04-08T23:20:57.310Z,10.10
2023-04-08T23:23:24.900Z,10.16
2023-04-08T23:25:55.363Z,10.11
2023-04-08T23:28:24.189Z,10.07
2023-04-08T23:30:51.295Z,10.09
2023-04-08T23:33:18.527Z,10.10
2023-04-08T23:35:46.082Z,10.03
2023-04-08T23:38:13.350Z,10.09
2023-04-08T23:40:41.109Z,10.09
2023-04-08T23:43:08.254Z,10.04
2023-04-08T23:45:35.387Z,9.95
2023-04-08T23:48:02.457Z,9.93
2023-04-08T23:50:29.546Z,9.90
2023-04-08T23:52:56.816Z,9.86
2023-04-08T23:55:23.892Z,9.84
2023-04-08T23:57:53.642Z,9.87
